Terminal Aerodrome Forecast
Issued by NWS

Home | Current Version | Previous Version | Text Only | Print | Product List | Glossary On
Versions: 1 2 3 4 5 6 7 8 9 10 11 12 13 14 15 16
706
FTUS42 KGSP 250534
TAFAND
TAF
KAND 250534Z 2506/2606 00000KT P6SM FEW250
     FM251400 24006KT P6SM SCT200
     FM252100 25008KT P6SM BKN200
     FM260000 28007KT P6SM SCT150=

USA.gov is the U.S. government's official web portal to all federal, state and local government web resources and services.